Amber, NY

9:57 AM EDT on September 01, 2014 (GMT -0400)
Syracuse Hancock International | Change Station
CLOSE
Current Station
Airport
Location: Syracuse,
Elevation: 420 ft
Nearby Weather Stations

Elev 420 ft 43.11 °N, 76.10 °W | Updated 1 hour ago

Mostly Cloudy
Mostly Cloudy
74 °F
Feels Like 74 °F
N
0
Wind Variable Wind from North

Today
High -- | Low -- °F
--% Chance of Precip.
Yesterday
High -- | Low -- °F
Precip. -- in
6:29 AM 7:39 PM
Waxing Crescent, 41% visible
Pressure 29.97 in
Visibility 10.0 miles
Clouds Scattered Clouds 1700 ft
Mostly Cloudy 3000 ft
Mostly Cloudy 22000 ft
Dew Point 69 °F
Humidity 85%
Rainfall 0.00 in
Snow Depth Not available.
UV 1 out of 12
Pollen 7.70 out of 12
PM2.5 Good
Flu Activity Not available.
METAR KSYR 011254Z 00000KT 10SM SCT017 BKN030 BKN220 23/21 A2999 RMK AO2 SLP149 BKN220 V OVC T02330206 $

More Conditions Fewer Conditions

Pressure 29.97 in
Visibility 10.0 miles
Clouds Scattered Clouds 1700 ft
Mostly Cloudy 3000 ft
Mostly Cloudy 22000 ft
Dew Point 69 °F
Humidity 85%
Rainfall 0.00 in
Snow Depth Not available.
UV 1 out of 12
Pollen 7.70 out of 12
PM2.5 Good
Flu Activity Not available.
METAR KSYR 011254Z 00000KT 10SM SCT017 BKN030 BKN220 23/21 A2999 RMK AO2 SLP149 BKN220 V OVC T02330206 $

More Conditions Fewer Conditions

10-Day Weather Forecast

Almanac

Astronomy

Sep. 01, 2014 Rise Set
Actual Time 6:29 AM EDT 7:39 PM EDT
Civil Twilight 6:00 AM EDT 8:08 PM EDT
Nautical Twilight 5:25 AM EDT 8:43 PM EDT
Astronomical Twilight 4:48 AM EDT 9:20 PM EDT
Moon 1:23 PM EDT 11:29 PM EDT
Length of Visible Light 14h 08m
Length of Day
13h 10m
Tomorrow will be 2m 48s shorter.
Waxing Crescent, 41% of the Moon is Illuminated
Today
Waxing Crescent
Sep 2
First Quarter
Sep 8
Full
Sep 15
Last Quarter
Sep 24
New

Today's Extremes

State Highs State Lows

Community

WunderPhotos

Upload Photos

1,749,222 photos uploaded!

Nearby

Air Quality

  Air Quality AQ Index Pollutant
Yesterday Good
PM2.5
Yesterday Good
OZONE
Current Good
PM2.5
Monday Moderate
OZONE
Monday Moderate
PM2.5
Tuesday Moderate
PM2.5
Tuesday Good
OZONE

Snow Depth

Station Depth Elevation
No new snow has been reported.

Earthquake Activity

City Distance Mag. Time & Date
No recent earthquake activity has been reported nearby.
Minimum magnitude displayed is 2.5.

Coastal Water Temperatures

Place Temperature
No Stations Reporting

Nearby Weather Stations